Time;durP1;ratioP1;P1;durP2;ratioP2;P2;SDS_P1;SDS_P2;PMS_P1;PMS_P2;Temp;Humidity;BMP_temperature;BMP_pressure;BME280_temperature;BME280_humidity;BME280_pressure;Samples;Min_cycle;Max_cycle;Signal;HPM_P1;HPM_P2
2022/06/21 00:00:53;;;;;;;0.40;0.40;;;;;;;13.42;75.48;98108.53;4774043;30;20142;-90
2022/06/21 00:03:23;;;;;;;0.40;0.40;;;;;;;13.48;75.82;98128.25;4757455;30;20055;-90
2022/06/21 00:05:51;;;;;;;0.30;0.30;;;;;;;13.41;76.12;98126.66;4776214;30;20051;-88
2022/06/21 00:08:25;;;;;;;0.30;0.30;;;;;;;13.34;76.17;98133.50;4772804;30;20130;-91
2022/06/21 00:10:54;;;;;;;;;;;;;;;13.25;76.07;98136.00;4772292;30;20197;-89
2022/06/21 00:13:30;;;;;;;0.40;0.40;;;;;;;13.21;76.30;98133.03;4786801;29;20477;-91
2022/06/21 00:16:05;;;;;;;0.40;0.40;;;;;;;13.20;76.33;98125.19;4770523;30;20083;-90
2022/06/21 00:18:34;;;;;;;0.40;0.40;;;;;;;13.17;76.51;98107.59;4771435;30;20070;-90
2022/06/21 00:21:02;;;;;;;0.40;0.40;;;;;;;13.18;76.58;98109.22;4770336;30;20113;-90
2022/06/21 00:23:31;;;;;;;0.40;0.40;;;;;;;13.20;77.07;98109.75;4771538;30;20052;-90
2022/06/21 00:25:59;;;;;;;0.35;0.35;;;;;;;13.15;77.34;98103.56;4772396;30;20055;-91
2022/06/21 00:28:26;;;;;;;0.35;0.35;;;;;;;13.07;77.94;98102.28;4771529;30;20108;-90
2022/06/21 00:30:54;;;;;;;0.40;0.40;;;;;;;13.11;78.03;98100.59;4776355;30;20051;-91
2022/06/21 00:33:23;;;;;;;0.30;0.30;;;;;;;13.14;78.11;98097.34;4769914;30;20174;-91
2022/06/21 00:35:53;;;;;;;0.30;0.30;;;;;;;13.14;78.33;98081.09;4772415;30;20056;-89
2022/06/21 00:38:28;;;;;;;0.40;0.40;;;;;;;13.10;78.64;98087.34;4774166;30;20060;-91
2022/06/21 00:40:57;;;;;;;0.30;0.30;;;;;;;13.07;78.85;98083.31;4756068;30;20397;-90
2022/06/21 00:43:31;;;;;;;0.30;0.30;;;;;;;13.08;78.96;98084.13;4770801;30;20101;-92
2022/06/21 00:45:59;;;;;;;0.40;0.40;;;;;;;13.08;78.97;98086.81;4770856;30;20146;-89
2022/06/21 00:48:38;;;;;;;0.40;0.40;;;;;;;13.09;78.99;98066.75;4770967;30;20532;-91
2022/06/21 00:51:18;;;;;;;0.40;0.40;;;;;;;13.14;78.85;98074.84;4755084;30;20520;-90
2022/06/21 00:53:51;;;;;;;0.40;0.40;;;;;;;13.20;78.43;98073.72;4770202;30;20060;-91
2022/06/21 00:56:31;;;;;;;0.30;0.30;;;;;;;13.22;78.71;98076.97;4769643;30;20101;-90
2022/06/21 00:59:17;;;;;;;0.40;0.40;;;;;;;13.13;79.38;98084.88;4769799;30;20043;-91
2022/06/21 01:01:46;;;;;;;0.40;0.40;;;;;;;13.10;79.32;98099.00;4771120;30;20091;-89
2022/06/21 01:04:23;;;;;;;0.40;0.40;;;;;;;13.04;79.04;98097.44;4770666;30;20079;-90
2022/06/21 01:06:54;;;;;;;0.40;0.40;;;;;;;13.02;79.08;98102.31;4754959;30;20098;-90
2022/06/21 01:09:34;;;;;;;0.40;0.40;;;;;;;13.01;79.35;98100.69;4770874;30;20079;-89
2022/06/21 01:12:07;;;;;;;0.38;0.38;;;;;;;13.08;78.43;98098.47;4769117;30;20083;-90
2022/06/21 01:14:37;;;;;;;0.40;0.40;;;;;;;13.04;78.26;98074.94;4770532;30;20480;-90
2022/06/21 01:17:05;;;;;;;0.40;0.40;;;;;;;13.10;78.15;98073.81;4772433;30;20067;-91
2022/06/21 01:19:48;;;;;;;0.40;0.40;;;;;;;13.16;78.43;98062.63;4770940;30;20151;-89
2022/06/21 01:22:36;;;;;;;0.40;0.40;;;;;;;13.08;78.53;98051.63;4757542;30;20501;-90
2022/06/21 01:25:16;;;;;;;0.40;0.40;;;;;;;13.00;78.68;98037.59;4774244;30;20458;-92
2022/06/21 01:27:43;;;;;;;0.40;0.40;;;;;;;12.92;78.52;98027.38;4776792;30;20064;-91
2022/06/21 01:30:10;;;;;;;0.35;0.35;;;;;;;12.92;78.62;98023.84;4792969;30;20059;-90
2022/06/21 01:32:37;;;;;;;0.40;0.40;;;;;;;12.92;78.82;98011.13;4790880;30;20093;-91
2022/06/21 01:35:11;;;;;;;0.40;0.40;;;;;;;12.98;79.33;98007.25;4757299;30;20055;-90
2022/06/21 01:37:39;;;;;;;0.40;0.40;;;;;;;13.02;79.19;98000.19;4772505;30;20546;-89
2022/06/21 01:40:10;;;;;;;0.40;0.40;;;;;;;13.06;79.10;97995.00;4772535;30;20055;-90
2022/06/21 01:42:45;;;;;;;0.40;0.40;;;;;;;13.14;79.45;97996.28;4775781;30;20142;-90
2022/06/21 01:45:21;;;;;;;0.40;0.40;;;;;;;13.16;79.88;97997.63;4772363;30;20059;-90
2022/06/21 01:47:59;;;;;;;0.40;0.40;;;;;;;13.21;79.86;98002.97;4756960;30;20114;-92
2022/06/21 01:50:26;;;;;;;0.40;0.40;;;;;;;13.25;79.58;97995.09;4770833;30;20572;-91
2022/06/21 01:52:55;;;;;;;0.35;0.35;;;;;;;13.28;79.07;97983.72;4772408;30;20055;-90
2022/06/21 01:55:28;;;;;;;0.30;0.30;;;;;;;13.29;79.59;97998.06;4770904;30;20059;-90
2022/06/21 01:57:57;;;;;;;0.40;0.40;;;;;;;13.27;79.87;97992.13;4771600;30;20474;-90
2022/06/21 02:00:24;;;;;;;0.30;0.30;;;;;;;13.19;80.12;98001.66;4771045;30;20060;-91
2022/06/21 02:02:55;;;;;;;0.40;0.40;;;;;;;13.10;80.54;98008.81;4770942;30;20048;-89
2022/06/21 02:05:31;;;;;;;0.40;0.40;;;;;;;13.12;80.88;98014.75;4770875;30;20485;-90
2022/06/21 02:08:01;;;;;;;0.40;0.40;;;;;;;13.12;81.06;98009.31;4772759;30;20051;-91
2022/06/21 02:10:38;;;;;;;0.40;0.40;;;;;;;13.16;81.43;98013.06;4771078;30;20059;-90
2022/06/21 02:13:14;;;;;;;0.40;0.40;;;;;;;13.21;81.17;98027.38;4770960;30;20084;-91
2022/06/21 02:15:47;;;;;;;0.30;0.30;;;;;;;13.13;80.81;98038.03;4756114;30;20056;-90
2022/06/21 02:18:16;;;;;;;0.32;0.32;;;;;;;13.04;81.24;98034.28;4771579;30;20127;-90
2022/06/21 02:21:03;;;;;;;0.40;0.40;;;;;;;12.96;81.80;98031.13;4772315;30;20067;-90
2022/06/21 02:23:30;;;;;;;0.40;0.40;;;;;;;12.95;81.89;98026.00;4771206;30;20508;-89
2022/06/21 02:25:58;;;;;;;0.40;0.40;;;;;;;12.99;82.19;98030.56;4772659;30;20428;-90
2022/06/21 02:28:28;;;;;;;0.40;0.40;;;;;;;13.02;82.33;98034.59;4772395;30;20066;-91
2022/06/21 02:30:57;;;;;;;0.40;0.40;;;;;;;13.00;82.87;98039.50;4771038;30;20114;-90
2022/06/21 02:33:30;;;;;;;0.40;0.40;;;;;;;12.97;82.89;98043.56;4771991;30;20055;-90
2022/06/21 02:35:59;;;;;;;0.40;0.40;;;;;;;12.95;83.01;98051.16;4773800;30;20117;-89
2022/06/21 02:38:36;;;;;;;0.35;0.35;;;;;;;12.98;83.35;98056.00;4771859;30;20056;-90
2022/06/21 02:41:37;;;;;;;0.40;0.40;;;;;;;12.99;83.52;98063.06;4755709;30;20062;-90
2022/06/21 02:44:23;;;;;;;0.40;0.40;;;;;;;12.93;84.09;98063.38;4754273;30;20068;-90
2022/06/21 02:47:05;;;;;;;0.40;0.40;;;;;;;12.90;84.78;98063.94;4768959;30;20060;-91
2022/06/21 02:49:36;;;;;;;0.40;0.40;;;;;;;12.87;85.26;98059.91;4770576;30;20055;-89
2022/06/21 02:52:14;;;;;;;0.40;0.40;;;;;;;12.90;85.47;98053.09;4769614;30;20064;-90
2022/06/21 02:54:51;;;;;;;0.40;0.40;;;;;;;12.85;85.98;98050.44;4769322;30;20547;-91
2022/06/21 02:57:30;;;;;;;0.35;0.35;;;;;;;12.86;86.18;98049.34;4770625;30;20079;-89
2022/06/21 02:59:58;;;;;;;0.32;0.32;;;;;;;12.92;85.96;98051.75;4769882;30;20206;-90
2022/06/21 03:02:27;;;;;;;0.40;0.40;;;;;;;12.97;86.15;98046.28;4770688;30;20052;-89
2022/06/21 03:04:58;;;;;;;0.40;0.40;;;;;;;13.01;85.93;98047.34;4754385;30;20048;-89
2022/06/21 03:07:53;;;;;;;0.40;0.40;;;;;;;12.95;86.34;98050.38;4769274;30;20105;-90
2022/06/21 03:10:29;;;;;;;0.40;0.40;;;;;;;12.87;86.67;98054.47;4770460;30;20059;-91
2022/06/21 03:13:04;;;;;;;0.40;0.40;;;;;;;12.83;86.75;98053.41;4771671;30;20500;-91
2022/06/21 03:15:31;;;;;;;0.40;0.40;;;;;;;12.83;86.78;98050.72;4774749;30;20547;-91
2022/06/21 03:18:04;;;;;;;0.40;0.40;;;;;;;12.86;86.99;98047.44;4771012;30;20109;-89
2022/06/21 03:20:32;;;;;;;0.30;0.30;;;;;;;12.81;87.11;98047.47;4769774;30;20091;-90
2022/06/21 03:22:59;;;;;;;0.30;0.30;;;;;;;12.79;87.27;98042.34;4771081;30;20079;-91
2022/06/21 03:25:41;;;;;;;0.40;0.40;;;;;;;12.77;87.50;98049.16;4770779;30;20512;-89
2022/06/21 03:28:27;;;;;;;0.40;0.40;;;;;;;12.77;87.76;98036.41;4769815;30;20090;-91
2022/06/21 03:31:09;;;;;;;0.40;0.40;;;;;;;12.79;87.77;98034.22;4770953;30;20083;-90
2022/06/21 03:33:39;;;;;;;0.40;0.40;;;;;;;12.79;87.71;98026.13;4771783;30;20055;-88
2022/06/21 03:36:08;;;;;;;0.40;0.40;;;;;;;12.89;87.78;98024.44;4773122;30;20120;-88
2022/06/21 03:38:37;;;;;;;0.40;0.40;;;;;;;12.98;87.81;98023.50;4772413;30;20090;-87
2022/06/21 03:43:59;;;;;;;0.40;0.40;;;;;;;13.16;87.50;98013.06;4771866;30;20067;-89
2022/06/21 03:46:45;;;;;;;0.30;0.30;;;;;;;13.22;86.94;98003.81;4762345;30;20093;-89
2022/06/21 03:49:30;;;;;;;0.40;0.40;;;;;;;13.20;87.22;98001.38;4779762;30;20090;-90
2022/06/21 03:51:58;;;;;;;0.30;0.30;;;;;;;13.22;87.29;97991.06;4755065;30;20060;-90
2022/06/21 03:54:31;;;;;;;0.40;0.40;;;;;;;13.27;87.63;97990.25;4768824;30;20047;-91
2022/06/21 03:57:29;;;;;;;0.40;0.40;;;;;;;13.40;87.63;97992.25;4769327;30;20083;-90
2022/06/21 04:00:04;;;;;;;0.40;0.40;;;;;;;13.49;87.48;97984.31;4768785;30;20440;-89
2022/06/21 04:02:56;;;;;;;0.40;0.40;;;;;;;13.73;87.69;97987.00;4768510;30;20052;-89
2022/06/21 04:05:41;;;;;;;0.40;0.40;;;;;;;13.89;87.49;97993.06;4769585;30;20059;-91
2022/06/21 04:08:12;;;;;;;0.40;0.40;;;;;;;13.98;86.98;97998.66;4756088;30;20146;-90
2022/06/21 04:10:58;;;;;;;0.40;0.40;;;;;;;14.04;87.04;97994.75;4768899;30;20632;-92
2022/06/21 04:13:53;;;;;;;0.40;0.40;;;;;;;14.07;86.66;97983.31;4768860;30;20060;-90
2022/06/21 04:16:41;;;;;;;;;;;;;;;14.18;86.27;97976.66;4769130;30;20059;-91
2022/06/21 04:19:17;;;;;;;0.40;0.40;;;;;;;14.30;85.87;97985.19;4769123;30;20064;-91
2022/06/21 04:22:06;;;;;;;0.40;0.40;;;;;;;14.45;85.45;97983.31;4769717;30;20431;-93
2022/06/21 04:24:45;;;;;;;0.38;0.38;;;;;;;14.58;85.14;97982.59;4769662;30;20059;-91
2022/06/21 04:27:21;;;;;;;0.38;0.38;;;;;;;14.64;84.53;97986.06;4769215;30;20099;-93
2022/06/21 04:30:11;;;;;;;0.40;0.40;;;;;;;14.60;84.77;97980.41;4755037;30;20090;-92
2022/06/21 04:32:46;;;;;;;0.40;0.40;;;;;;;14.54;85.02;97973.47;4772296;30;20119;-90
2022/06/21 04:35:16;;;;;;;0.40;0.40;;;;;;;14.53;85.32;97969.13;4778970;30;20127;-92
2022/06/21 04:37:48;;;;;;;0.40;0.40;;;;;;;14.49;85.08;97965.38;4773060;30;20101;-92
2022/06/21 04:40:22;;;;;;;0.40;0.40;;;;;;;14.56;84.69;97962.28;4774348;30;20431;-91
2022/06/21 04:43:02;;;;;;;0.40;0.40;;;;;;;14.70;84.46;97950.38;4757257;30;20484;-92
2022/06/21 04:45:41;;;;;;;0.40;0.40;;;;;;;14.83;83.84;97954.22;4773007;30;20031;-92
2022/06/21 04:48:25;;;;;;;0.40;0.40;;;;;;;15.07;82.59;97956.81;4777542;30;20052;-92
2022/06/21 04:51:03;;;;;;;0.40;0.40;;;;;;;15.26;81.22;97948.56;4788987;30;20036;-91
2022/06/21 04:53:52;;;;;;;0.40;0.40;;;;;;;15.55;79.79;97947.50;4779299;30;20471;-93
2022/06/21 04:57:05;;;;;;;0.40;0.40;;;;;;;15.80;77.94;97941.56;4750838;30;20083;-92
2022/06/21 04:59:49;;;;;;;0.40;0.40;;;;;;;15.96;77.26;97933.88;4761615;30;20090;-91
2022/06/21 05:02:25;;;;;;;0.40;0.40;;;;;;;16.10;76.37;97943.91;4755388;30;20056;-92
2022/06/21 05:05:03;;;;;;;0.40;0.40;;;;;;;16.09;76.63;97953.19;4761788;30;20123;-93
2022/06/21 05:07:32;;;;;;;0.40;0.40;;;;;;;16.04;75.90;97963.06;4753169;30;20055;-91
2022/06/21 05:10:00;;;;;;;0.40;0.40;;;;;;;15.95;76.11;97954.03;4747836;30;20480;-92
2022/06/21 05:12:34;;;;;;;0.40;0.40;;;;;;;16.05;75.08;97950.25;4764557;30;20063;-92
2022/06/21 05:15:23;;;;;;;0.40;0.40;;;;;;;16.21;74.56;97945.31;4752903;30;20063;-91
2022/06/21 05:17:58;;;;;;;0.40;0.40;;;;;;;16.37;73.13;97943.81;4752762;30;20070;-91
2022/06/21 05:20:30;;;;;;;0.40;0.40;;;;;;;16.60;73.02;97949.28;4730456;30;20475;-91
2022/06/21 05:23:01;;;;;;;0.40;0.40;;;;;;;16.75;72.18;97940.72;4766698;30;20055;-91
2022/06/21 05:25:35;;;;;;;0.40;0.40;;;;;;;16.81;71.90;97941.44;4764542;30;20074;-92
2022/06/21 05:28:07;;;;;;;0.40;0.40;;;;;;;16.74;71.27;97939.13;4769225;30;20108;-93
2022/06/21 05:30:53;;;;;;;0.30;0.30;;;;;;;16.60;72.12;97946.56;4769488;30;20212;-92
2022/06/21 05:34:14;;;;;;;;;;;;;;;;;;;;;
2022/06/21 05:37:02;;;;;;;0.30;0.30;;;;;;;16.44;72.18;97960.53;4743366;30;20129;-91
2022/06/21 05:39:40;;;;;;;0.40;0.40;;;;;;;16.46;72.54;97943.91;4733436;30;20059;-91
2022/06/21 05:42:12;;;;;;;0.40;0.40;;;;;;;16.79;71.68;97947.22;4766533;30;20060;-93
2022/06/21 05:44:49;;;;;;;0.40;0.40;;;;;;;17.03;70.62;97946.06;4770554;30;20072;-91
2022/06/21 05:47:28;;;;;;;0.30;0.30;;;;;;;17.13;70.35;97959.41;4756982;30;20052;-91
2022/06/21 05:49:57;;;;;;;0.40;0.40;;;;;;;17.00;69.85;97952.16;4766854;30;20105;-91
2022/06/21 05:52:34;;;;;;;0.30;0.30;;;;;;;17.02;69.58;97936.28;4760618;30;20058;-93
2022/06/21 05:55:14;;;;;;;0.40;0.40;;;;;;;17.21;68.68;97945.03;4743914;30;20587;-90
2022/06/21 05:58:19;;;;;;;0.40;0.40;;;;;;;17.52;68.39;97944.19;4767984;30;20586;-90
2022/06/21 06:01:07;;;;;;;0.40;0.40;;;;;;;17.66;67.76;97931.22;4765465;30;20090;-94
2022/06/21 06:03:44;;;;;;;0.40;0.40;;;;;;;17.78;66.89;97927.91;4764296;30;20056;-95
2022/06/21 06:06:20;;;;;;;0.40;0.40;;;;;;;17.65;67.06;97931.56;4758000;30;20056;-92
2022/06/21 06:09:01;;;;;;;0.30;0.30;;;;;;;17.69;67.22;97936.06;4771098;30;20059;-90
2022/06/21 06:14:20;;;;;;;0.30;0.30;;;;;;;17.58;66.86;97937.47;4773708;30;20613;-88
2022/06/21 06:16:51;;;;;;;0.30;0.30;;;;;;;17.44;67.12;97939.50;4772618;30;20059;-93
2022/06/21 06:19:39;;;;;;;0.30;0.30;;;;;;;17.35;66.89;97938.69;4749803;30;20059;-95
2022/06/21 06:22:43;;;;;;;0.38;0.38;;;;;;;17.30;67.31;97937.69;4760269;30;20071;-93
2022/06/21 06:25:29;;;;;;;0.40;0.40;;;;;;;17.37;67.13;97930.97;4759942;30;20114;-90
2022/06/21 06:28:24;;;;;;;0.30;0.30;;;;;;;17.49;67.61;97936.63;4760796;30;20123;-93
2022/06/21 06:31:23;;;;;;;0.30;0.30;;;;;;;17.50;68.40;97941.78;4758563;30;20052;-91
2022/06/21 06:33:55;;;;;;;0.40;0.40;;;;;;;17.42;68.52;97930.81;4796123;29;20111;-91
2022/06/21 06:36:31;;;;;;;0.40;0.40;;;;;;;17.27;68.85;97930.16;4760974;30;20083;-92
2022/06/21 06:39:26;;;;;;;0.30;0.30;;;;;;;17.04;69.05;97950.38;4785313;29;20097;-91
2022/06/21 06:42:23;;;;;;;0.30;0.30;;;;;;;16.69;69.50;97955.59;4786347;30;20048;-91
2022/06/21 06:44:56;;;;;;;0.30;0.30;;;;;;;16.68;69.60;97948.53;4775024;30;20100;-89
2022/06/21 06:47:33;;;;;;;0.30;0.30;;;;;;;16.78;69.44;97942.84;4773132;30;20062;-89
2022/06/21 06:50:11;;;;;;;0.30;0.30;;;;;;;16.82;69.85;97937.63;4770871;30;20060;-90
2022/06/21 06:52:49;;;;;;;0.30;0.30;;;;;;;16.83;70.42;97936.47;4759100;30;20058;-89
2022/06/21 06:55:35;;;;;;;0.30;0.30;;;;;;;16.80;70.55;97948.81;4759131;30;20427;-93
2022/06/21 06:58:48;;;;;;;0.30;0.30;;;;;;;16.83;70.90;97940.00;4747925;30;20056;-92
2022/06/21 07:01:20;;;;;;;0.30;0.30;;;;;;;16.77;69.52;97940.44;4753164;30;20055;-91
2022/06/21 07:03:50;;;;;;;0.30;0.30;;;;;;;16.73;70.24;97933.97;4759126;30;20063;-89
2022/06/21 07:06:30;;;;;;;0.30;0.30;;;;;;;16.80;70.88;97940.63;4761872;30;20052;-88
2022/06/21 07:09:13;;;;;;;0.30;0.30;;;;;;;16.73;72.00;97940.22;4778370;30;20116;-88
2022/06/21 07:11:40;;;;;;;0.30;0.30;;;;;;;16.81;72.05;97942.25;4759762;30;20079;-87
2022/06/21 07:14:27;;;;;;;0.30;0.30;;;;;;;16.96;71.04;97935.59;4763487;30;20158;-85
2022/06/21 07:17:14;;;;;;;0.30;0.30;;;;;;;16.98;70.86;97927.13;4762560;30;20106;-88
2022/06/21 07:19:41;;;;;;;0.30;0.30;;;;;;;16.89;70.92;97929.81;4761400;30;20066;-88
2022/06/21 07:22:20;;;;;;;0.30;0.30;;;;;;;16.87;71.42;97930.09;4762622;30;20048;-89
2022/06/21 07:25:02;;;;;;;0.30;0.30;;;;;;;16.90;70.94;97926.75;4766614;30;20052;-88
2022/06/21 07:27:31;;;;;;;0.30;0.30;;;;;;;16.83;70.91;97928.31;4762975;30;20401;-88
2022/06/21 07:30:08;;;;;;;0.30;0.30;;;;;;;16.84;71.26;97927.22;4748322;30;20086;-87
2022/06/21 07:32:41;;;;;;;0.30;0.30;;;;;;;16.82;70.87;97916.63;4763981;30;20538;-90
2022/06/21 07:35:15;;;;;;;0.30;0.30;;;;;;;16.89;70.69;97922.44;4434641;29;9999858;-90
2022/06/21 07:37:55;;;;;;;0.30;0.30;;;;;;;16.89;70.86;97916.97;4767600;30;20478;-91
2022/06/21 07:40:31;;;;;;;0.30;0.30;;;;;;;16.94;70.90;97923.41;4772910;30;20487;-90
2022/06/21 07:43:16;;;;;;;0.30;0.30;;;;;;;17.03;70.40;97916.09;4767339;30;20055;-90
2022/06/21 07:45:59;;;;;;;0.30;0.30;;;;;;;17.10;69.46;97911.78;4756667;30;20431;-89
2022/06/21 07:48:38;;;;;;;0.30;0.30;;;;;;;17.19;68.33;97906.38;4749433;30;20095;-91
2022/06/21 07:51:13;;;;;;;0.30;0.30;;;;;;;17.30;67.97;97915.88;4761762;30;20056;-88
2022/06/21 07:54:07;;;;;;;0.30;0.30;;;;;;;17.41;68.09;97910.13;4763018;30;20080;-95
2022/06/21 07:56:44;;;;;;;0.30;0.30;;;;;;;17.60;67.49;97913.41;4764755;29;20076;-91
2022/06/21 07:59:18;;;;;;;0.40;0.40;;;;;;;17.77;65.77;97916.19;4770130;30;20068;-94
2022/06/21 08:08:06;;;;;;;0.40;0.40;;;;;;;18.27;63.53;97895.06;4750700;30;20076;-92
2022/06/21 08:10:53;;;;;;;0.40;0.40;;;;;;;18.61;63.19;97902.44;4737007;30;20056;-93
2022/06/21 08:13:25;;;;;;;0.30;0.30;;;;;;;18.73;61.92;97909.94;4763023;30;20048;-92
2022/06/21 08:16:01;;;;;;;0.40;0.40;;;;;;;18.67;62.65;97914.78;4772220;30;20058;-92
2022/06/21 08:18:40;;;;;;;0.30;0.30;;;;;;;18.62;62.62;97918.47;4773293;29;20066;-93
2022/06/21 08:21:16;;;;;;;0.30;0.30;;;;;;;18.58;62.95;97919.44;4743741;30;20114;-92
2022/06/21 08:23:55;;;;;;;0.30;0.30;;;;;;;18.48;62.58;97915.09;4760631;30;20095;-91
2022/06/21 08:26:41;;;;;;;0.30;0.30;;;;;;;18.35;63.09;97913.34;4747798;30;20144;-93
2022/06/21 08:29:16;;;;;;;0.30;0.30;;;;;;;18.20;64.40;97903.72;4773853;29;20036;-93
2022/06/21 08:31:49;;;;;;;0.30;0.30;;;;;;;18.22;64.47;97897.94;4773853;30;20031;-92
2022/06/21 08:34:40;;;;;;;0.30;0.30;;;;;;;18.14;63.49;97894.09;4762490;30;20051;-93
2022/06/21 08:37:12;;;;;;;0.30;0.30;;;;;;;17.93;63.03;97885.75;4778799;24;20072;-91
2022/06/21 08:39:56;;;;;;;0.30;0.30;;;;;;;17.82;63.78;97890.69;4772909;30;20115;-90
2022/06/21 08:42:35;;;;;;;0.20;0.20;;;;;;;17.79;63.65;97894.03;4778154;30;20048;-93
2022/06/21 08:45:43;;;;;;;0.30;0.30;;;;;;;17.71;63.88;97901.06;4761501;30;20314;-92
2022/06/21 08:48:45;;;;;;;0.30;0.30;;;;;;;17.65;63.30;97905.09;4762592;30;20061;-89
2022/06/21 08:51:44;;;;;;;0.30;0.30;;;;;;;17.58;63.40;97903.94;4752460;30;20051;-91
2022/06/21 08:54:38;;;;;;;0.30;0.30;;;;;;;17.46;64.41;97890.91;4782272;29;20595;-93
2022/06/21 08:57:19;;;;;;;0.30;0.30;;;;;;;17.44;63.85;97898.59;4781898;29;20056;-91
2022/06/21 08:59:54;;;;;;;0.25;0.25;;;;;;;17.35;64.54;97897.78;4764987;30;20053;-89
2022/06/21 09:02:21;;;;;;;0.30;0.30;;;;;;;17.36;65.22;97905.63;4766110;30;20048;-94
2022/06/21 09:05:14;;;;;;;0.30;0.30;;;;;;;17.30;65.46;97904.19;4768135;29;20083;-94
2022/06/21 09:08:10;;;;;;;0.30;0.30;;;;;;;17.20;66.03;97899.00;4763508;30;20071;-94
2022/06/21 09:10:45;;;;;;;0.22;0.22;;;;;;;17.05;67.04;97897.50;4786609;30;20071;-95
2022/06/21 09:13:50;;;;;;;0.30;0.30;;;;;;;16.90;68.00;97894.06;4773934;29;20091;-95
2022/06/21 09:16:30;;;;;;;0.20;0.20;;;;;;;16.86;68.20;97903.16;4764775;30;20091;-91
2022/06/21 09:23:08;;;;;;;0.30;0.30;;;;;;;16.70;68.59;97910.91;4775177;30;20060;-96
2022/06/21 09:32:00;;;;;;;0.30;0.30;;;;;;;16.36;68.95;97897.88;4805195;29;20048;-96
2022/06/21 09:34:47;;;;;;;0.30;0.30;;;;;;;16.19;70.22;97898.53;4792185;30;20071;-96
2022/06/21 09:37:47;;;;;;;0.30;0.30;;;;;;;16.23;70.92;97905.78;4791884;29;20115;-96
2022/06/21 09:41:16;;;;;;;0.30;0.30;;;;;;;15.97;71.73;97891.94;4791621;29;20260;-91
2022/06/21 09:53:26;;;;;;;0.30;0.30;;;;;;;14.98;77.31;97909.69;4721354;30;19935;-96
2022/06/21 10:05:56;;;;;;;0.30;0.30;;;;;;;15.26;79.08;97917.88;4777412;24;20043;-93
2022/06/21 10:21:29;;;;;;;0.30;0.30;;;;;;;15.47;77.17;97894.63;4775123;30;20061;-95
2022/06/21 10:24:15;;;;;;;0.40;0.40;;;;;;;15.66;75.60;97910.81;4795314;29;20074;-84
2022/06/21 10:30:20;;;;;;;0.40;0.40;;;;;;;15.77;75.74;97908.69;5131648;24;20064;-96
2022/06/21 10:43:16;;;;;;;0.30;0.30;;;;;;;15.53;76.51;97908.91;4996924;24;20063;-96
2022/06/21 10:52:13;;;;;;;0.30;0.30;;;;;;;15.77;75.58;97890.50;4793358;29;20142;-90
2022/06/21 10:55:00;;;;;;;0.40;0.40;;;;;;;15.82;74.99;97889.53;4795422;29;20043;-91
2022/06/21 11:07:24;;;;;;;0.32;0.32;;;;;;;16.16;73.77;97871.94;5076651;24;20043;-93
2022/06/21 11:10:40;;;;;;;0.40;0.40;;;;;;;16.30;73.21;97864.50;4760573;30;20472;-92
2022/06/21 11:13:14;;;;;;;0.40;0.40;;;;;;;16.37;73.25;97870.31;4539608;24;10001551;-94
2022/06/21 11:15:42;;;;;;;0.40;0.40;;;;;;;16.42;73.49;97875.63;4750103;30;20052;-92
2022/06/21 11:18:33;;;;;;;0.30;0.30;;;;;;;16.31;73.18;97865.31;4777108;30;20060;-96
2022/06/21 11:21:39;;;;;;;0.30;0.30;;;;;;;16.27;72.15;97873.28;4789600;30;20090;-93
2022/06/21 11:24:37;;;;;;;0.30;0.30;;;;;;;16.21;71.83;97888.13;4761302;30;20055;-94
2022/06/21 11:27:30;;;;;;;0.30;0.30;;;;;;;16.02;71.33;97883.66;4761789;30;20087;-93
2022/06/21 11:30:40;;;;;;;0.30;0.30;;;;;;;16.19;71.99;97887.63;4775678;30;20113;-93
2022/06/21 11:33:24;;;;;;;0.30;0.30;;;;;;;16.19;71.05;97893.88;4729559;30;20056;-94
2022/06/21 11:36:08;;;;;;;0.30;0.30;;;;;;;16.12;71.09;97892.69;4740204;30;20151;-94
2022/06/21 11:38:53;;;;;;;0.30;0.30;;;;;;;16.11;71.59;97899.25;4757457;30;20163;-93
2022/06/21 11:42:08;;;;;;;0.30;0.30;;;;;;;16.17;71.51;97895.31;4759472;30;20056;-93
2022/06/21 11:44:53;;;;;;;0.30;0.30;;;;;;;16.27;71.01;97889.63;4758642;30;20103;-94
2022/06/21 11:47:20;;;;;;;0.40;0.40;;;;;;;16.42;70.04;97889.25;4703553;30;20052;-95
2022/06/21 11:50:12;;;;;;;0.40;0.40;;;;;;;16.56;69.81;97888.38;4748506;30;20044;-92
2022/06/21 11:53:24;;;;;;;0.40;0.40;;;;;;;16.60;69.06;97892.09;4721809;30;20055;-90
2022/06/21 11:55:57;;;;;;;0.30;0.30;;;;;;;16.43;69.31;97871.81;4859074;24;20052;-92
2022/06/21 11:59:16;;;;;;;0.35;0.35;;;;;;;16.71;69.09;97877.09;4788996;29;20535;-95
2022/06/21 12:01:52;;;;;;;0.30;0.30;;;;;;;16.84;68.64;97870.78;4777705;30;20079;-94
2022/06/21 12:04:22;;;;;;;0.30;0.30;;;;;;;16.94;68.59;97872.44;4786198;30;20051;-92
2022/06/21 12:07:00;;;;;;;0.30;0.30;;;;;;;17.01;68.72;97870.03;4784926;30;20071;-96
2022/06/21 12:10:15;;;;;;;0.30;0.30;;;;;;;17.03;69.22;97861.56;4807123;29;20060;-93
2022/06/21 12:16:41;;;;;;;0.30;0.30;;;;;;;17.18;68.93;97869.31;4849711;24;20131;-93
2022/06/21 12:19:24;;;;;;;0.30;0.30;;;;;;;17.24;69.25;97848.16;4781774;30;20031;-95
2022/06/21 12:22:27;;;;;;;0.30;0.30;;;;;;;17.17;70.10;97843.19;4786133;29;20070;-92
2022/06/21 12:24:58;;;;;;;0.40;0.40;;;;;;;17.25;68.98;97842.41;4783195;30;20066;-94
2022/06/21 12:27:25;;;;;;;0.30;0.30;;;;;;;17.42;67.62;97843.56;4765505;30;20124;-94
2022/06/21 12:29:59;;;;;;;0.30;0.30;;;;;;;17.56;67.40;97846.97;4795625;30;20086;-94
2022/06/21 12:32:30;;;;;;;0.30;0.30;;;;;;;17.61;67.63;97843.28;4768055;30;20032;-93
2022/06/21 12:35:16;;;;;;;0.30;0.30;;;;;;;17.74;67.03;97840.41;4784572;30;20046;-95
2022/06/21 12:37:54;;;;;;;0.30;0.30;;;;;;;17.70;66.67;97844.13;4793032;29;20086;-93
2022/06/21 12:44:16;;;;;;;0.30;0.30;;;;;;;17.51;67.86;97842.47;4764782;30;20082;-92
2022/06/21 12:47:06;;;;;;;0.40;0.40;;;;;;;17.57;67.95;97831.41;4760806;29;20056;-93
2022/06/21 12:50:11;;;;;;;0.30;0.30;;;;;;;17.46;67.79;97828.97;4751101;30;20132;-94
2022/06/21 12:52:43;;;;;;;0.30;0.30;;;;;;;17.51;68.21;97828.03;4734080;30;20065;-93
2022/06/21 12:55:22;;;;;;;0.30;0.30;;;;;;;17.62;67.92;97823.84;4736074;30;20076;-94
2022/06/21 12:57:52;;;;;;;0.40;0.40;;;;;;;17.65;67.30;97819.72;4727462;30;20080;-91
2022/06/21 13:00:55;;;;;;;0.30;0.30;;;;;;;17.53;67.80;97825.78;4720523;30;20064;-90
2022/06/21 13:03:27;;;;;;;0.30;0.30;;;;;;;17.48;68.43;97815.03;4723672;30;20446;-88
2022/06/21 13:06:14;;;;;;;0.30;0.30;;;;;;;17.59;68.42;97797.22;4721565;30;20061;-94
2022/06/21 13:09:04;;;;;;;0.30;0.30;;;;;;;17.71;68.02;97791.13;4718468;30;20053;-92
2022/06/21 13:11:51;;;;;;;0.30;0.30;;;;;;;17.86;67.51;97796.16;4717508;30;20060;-93
2022/06/21 13:14:57;;;;;;;0.30;0.30;;;;;;;17.86;67.55;97801.59;4729498;30;20097;-93
2022/06/21 13:17:30;;;;;;;0.30;0.30;;;;;;;17.71;67.77;97804.78;4728035;30;20084;-95
2022/06/21 13:20:07;;;;;;;0.30;0.30;;;;;;;17.65;67.81;97801.41;4739762;30;20100;-90
2022/06/21 13:23:01;;;;;;;0.30;0.30;;;;;;;17.50;67.86;97794.50;4735187;30;20557;-96
2022/06/21 13:25:34;;;;;;;0.30;0.30;;;;;;;17.23;69.03;97790.13;4726921;30;20643;-94
2022/06/21 13:28:10;;;;;;;0.30;0.30;;;;;;;17.11;69.35;97790.72;4754103;30;20517;-92
2022/06/21 13:30:40;;;;;;;0.30;0.30;;;;;;;17.04;69.43;97787.69;4764504;30;20060;-95
2022/06/21 13:33:21;;;;;;;0.30;0.30;;;;;;;17.17;69.19;97774.25;4742824;30;20630;-92
2022/06/21 13:35:56;;;;;;;0.30;0.30;;;;;;;17.25;69.18;97787.09;4733553;30;20111;-93
2022/06/21 13:38:35;;;;;;;0.30;0.30;;;;;;;17.28;68.93;97776.34;4757195;30;20146;-92
2022/06/21 13:45:50;;;;;;;0.30;0.30;;;;;;;17.24;67.95;97775.38;4794204;24;20138;-95
2022/06/21 13:48:43;;;;;;;0.30;0.30;;;;;;;17.27;66.80;97771.22;4789407;29;20043;-96
2022/06/21 13:51:12;;;;;;;0.30;0.30;;;;;;;17.32;66.63;97771.06;4801985;24;20136;-94
2022/06/21 13:54:13;;;;;;;0.30;0.30;;;;;;;17.38;65.45;97753.41;4768848;30;20052;-95
2022/06/21 13:57:01;;;;;;;0.30;0.30;;;;;;;17.61;64.60;97778.63;4757450;30;20505;-92
2022/06/21 13:59:38;;;;;;;0.30;0.30;;;;;;;17.62;64.19;97758.38;4761510;30;20133;-94
2022/06/21 14:02:11;;;;;;;0.30;0.30;;;;;;;17.65;64.75;97760.50;4759941;30;20056;-93
2022/06/21 14:05:37;;;;;;;0.30;0.30;;;;;;;17.71;63.91;97750.22;4777325;30;20047;-93
2022/06/21 14:08:19;;;;;;;0.30;0.30;;;;;;;17.58;63.97;97740.28;4725869;30;20056;-88
2022/06/21 14:11:00;;;;;;;0.30;0.30;;;;;;;17.65;64.26;97746.84;4736339;30;20096;-89